TVS1176 LKPR-LPMA
Flight info
| Callsign | TVS1176 |
|---|---|
| Flight time | 4h 22m |
| Altitude | 32000 |
| Route | BALTU DCT DONAD DCT OKG L984 KULOK Z715 ANELA N869 TEDGO/N0446F330 N869 NATOR DCT LUTIX DCT BENOT DCT NEMOS DCT NINTU DCT MEBAK DCT REPSI DCT LERGA DCT MINSO DCT NARAK DCT AGN DCT PIPOR L866 PPN/N0449F350 N976 NEA DCT ARDID DCT FTM DCT EKLID DCT OLBOD DCT NASAS DCT RAKUN |
| Aircraft | B739/M-SDE2E3FGHIRWXY/LB1 |
Departure
| Time | 2026-05-01 08:13 |
|---|---|
| Airport | Václav Havel Airport Prague (LKPR) |
Arrival
| Time | 2026-05-01 12:36 |
|---|---|
| Airport | Cristiano Ronaldo International Airport (LPMA) |
| Time | Latitude | Longitude | Altitude | Speed | Heading |
|---|---|---|---|---|---|
| 2026-05-01 07:35 | 50.10385 | 14.26680 | 1255 ft | 0 kts | 33° |
| 2026-05-01 08:03 | 50.10365 | 14.26666 | 1254 ft | 2 kts | 0° |
| 2026-05-01 08:04 | 50.10337 | 14.26680 | 1254 ft | 2 kts | 321° |
| 2026-05-01 08:04 | 50.10321 | 14.26712 | 1254 ft | 0 kts | 303° |
| 2026-05-01 08:05 | 50.10319 | 14.26714 | 1254 ft | 0 kts | 304° |
| 2026-05-01 08:08 | 50.10323 | 14.26708 | 1254 ft | 4 kts | 304° |
| 2026-05-01 08:08 | 50.10258 | 14.26530 | 1254 ft | 13 kts | 187° |
| 2026-05-01 08:09 | 50.10136 | 14.26726 | 1254 ft | 15 kts | 126° |
| 2026-05-01 08:09 | 50.10066 | 14.26871 | 1254 ft | 18 kts | 127° |
| 2026-05-01 08:09 | 50.09979 | 14.27049 | 1254 ft | 21 kts | 127° |
| 2026-05-01 08:10 | 50.09800 | 14.27389 | 1254 ft | 18 kts | 135° |
| 2026-05-01 08:10 | 50.09622 | 14.27653 | 1254 ft | 19 kts | 136° |
| 2026-05-01 08:11 | 50.09361 | 14.28060 | 1254 ft | 30 kts | 134° |
| 2026-05-01 08:11 | 50.09094 | 14.28120 | 1254 ft | 23 kts | 266° |
| 2026-05-01 08:12 | 50.09126 | 14.27989 | 1254 ft | 0 kts | 305° |
| 2026-05-01 08:12 | 50.09491 | 14.27210 | 1255 ft | 105 kts | 307° |
| 2026-05-01 08:13 | 50.10049 | 14.26083 | 1255 ft | 156 kts | 307° |
| 2026-05-01 08:13 | 50.10788 | 14.24558 | 1461 ft | 183 kts | 307° |
| 2026-05-01 08:13 | 50.12329 | 14.21416 | 2740 ft | 190 kts | 308° |
| 2026-05-01 08:14 | 50.13157 | 14.19674 | 3051 ft | 208 kts | 308° |
| 2026-05-01 08:14 | 50.14063 | 14.17784 | 3409 ft | 223 kts | 309° |
| 2026-05-01 08:14 | 50.15026 | 14.15791 | 3799 ft | 238 kts | 309° |
| 2026-05-01 08:14 | 50.16058 | 14.13657 | 4182 ft | 253 kts | 309° |
| 2026-05-01 08:15 | 50.17145 | 14.11403 | 4646 ft | 264 kts | 309° |
| 2026-05-01 08:15 | 50.19395 | 14.06719 | 5895 ft | 273 kts | 310° |
| 2026-05-01 08:15 | 50.20536 | 14.04340 | 6532 ft | 276 kts | 310° |
| 2026-05-01 08:16 | 50.21659 | 14.01895 | 7158 ft | 282 kts | 305° |
| 2026-05-01 08:16 | 50.22433 | 13.99069 | 7762 ft | 291 kts | 284° |
| 2026-05-01 08:16 | 50.22420 | 13.95919 | 8361 ft | 300 kts | 258° |
| 2026-05-01 08:16 | 50.21812 | 13.92813 | 8953 ft | 304 kts | 252° |
| 2026-05-01 08:17 | 50.21112 | 13.89652 | 9516 ft | 309 kts | 252° |
| 2026-05-01 08:17 | 50.20425 | 13.86505 | 10091 ft | 313 kts | 252° |
| 2026-05-01 08:17 | 50.19730 | 13.83254 | 10672 ft | 316 kts | 253° |
| 2026-05-01 08:17 | 50.19022 | 13.79897 | 10920 ft | 332 kts | 253° |
| 2026-05-01 08:18 | 50.18285 | 13.76393 | 11186 ft | 348 kts | 253° |
| 2026-05-01 08:18 | 50.16710 | 13.68932 | 11689 ft | 377 kts | 253° |
| 2026-05-01 08:19 | 50.15018 | 13.60976 | 12551 ft | 393 kts | 253° |
| 2026-05-01 08:19 | 50.14154 | 13.56927 | 13104 ft | 397 kts | 253° |
| 2026-05-01 08:19 | 50.13264 | 13.52767 | 13653 ft | 401 kts | 253° |
| 2026-05-01 08:19 | 50.12382 | 13.48651 | 14208 ft | 405 kts | 253° |
| 2026-05-01 08:20 | 50.11490 | 13.44494 | 14782 ft | 407 kts | 253° |
| 2026-05-01 08:20 | 50.10594 | 13.40326 | 15320 ft | 410 kts | 253° |
| 2026-05-01 08:20 | 50.09744 | 13.36097 | 15830 ft | 413 kts | 256° |
| 2026-05-01 08:20 | 50.09088 | 13.31718 | 16347 ft | 415 kts | 262° |
| 2026-05-01 08:21 | 50.08712 | 13.27264 | 16854 ft | 417 kts | 266° |
| 2026-05-01 08:21 | 50.08517 | 13.22775 | 17343 ft | 419 kts | 269° |
| 2026-05-01 08:21 | 50.08410 | 13.18230 | 17835 ft | 422 kts | 270° |
| 2026-05-01 08:21 | 50.08333 | 13.13656 | 18290 ft | 425 kts | 271° |
| 2026-05-01 08:22 | 50.08255 | 13.09043 | 18780 ft | 428 kts | 271° |
| 2026-05-01 08:22 | 50.08164 | 13.04424 | 19257 ft | 431 kts | 270° |
| 2026-05-01 08:22 | 50.08060 | 12.99824 | 19745 ft | 433 kts | 270° |
| 2026-05-01 08:22 | 50.07947 | 12.95093 | 20220 ft | 435 kts | 270° |
| 2026-05-01 08:23 | 50.07835 | 12.90399 | 20700 ft | 436 kts | 270° |
| 2026-05-01 08:23 | 50.07722 | 12.85695 | 21128 ft | 439 kts | 270° |
| 2026-05-01 08:23 | 50.07606 | 12.80946 | 21591 ft | 441 kts | 270° |
| 2026-05-01 08:23 | 50.07487 | 12.76209 | 22050 ft | 443 kts | 270° |
| 2026-05-01 08:24 | 50.07365 | 12.71433 | 22453 ft | 445 kts | 270° |
| 2026-05-01 08:24 | 50.07238 | 12.66618 | 22896 ft | 447 kts | 270° |
| 2026-05-01 08:24 | 50.07109 | 12.61784 | 23343 ft | 448 kts | 270° |
| 2026-05-01 08:24 | 50.06979 | 12.57005 | 23710 ft | 451 kts | 270° |
| 2026-05-01 08:25 | 50.06845 | 12.52131 | 24116 ft | 453 kts | 270° |
| 2026-05-01 08:25 | 50.06707 | 12.47219 | 24499 ft | 455 kts | 270° |
| 2026-05-01 08:25 | 50.06568 | 12.42335 | 24866 ft | 458 kts | 270° |
| 2026-05-01 08:25 | 50.06456 | 12.37374 | 25278 ft | 458 kts | 272° |
| 2026-05-01 08:26 | 50.06450 | 12.32442 | 25614 ft | 460 kts | 273° |
| 2026-05-01 08:26 | 50.06517 | 12.27493 | 25960 ft | 462 kts | 274° |
| 2026-05-01 08:26 | 50.06614 | 12.22447 | 26315 ft | 463 kts | 274° |
| 2026-05-01 08:26 | 50.06715 | 12.17452 | 26667 ft | 465 kts | 274° |
| 2026-05-01 08:27 | 50.06810 | 12.12482 | 26996 ft | 467 kts | 274° |
| 2026-05-01 08:27 | 50.06895 | 12.07442 | 27314 ft | 469 kts | 274° |
| 2026-05-01 08:27 | 50.06967 | 12.02376 | 27670 ft | 470 kts | 274° |
| 2026-05-01 08:27 | 50.07025 | 11.97340 | 28208 ft | 466 kts | 274° |
| 2026-05-01 08:28 | 50.07074 | 11.92346 | 28697 ft | 463 kts | 274° |
| 2026-05-01 08:28 | 50.07116 | 11.87356 | 29115 ft | 462 kts | 274° |
| 2026-05-01 08:28 | 50.07154 | 11.82363 | 29537 ft | 460 kts | 274° |
| 2026-05-01 08:28 | 50.07188 | 11.77412 | 29935 ft | 459 kts | 273° |
| 2026-05-01 08:29 | 50.07114 | 11.72457 | 30246 ft | 461 kts | 269° |
| 2026-05-01 08:29 | 50.06669 | 11.67500 | 30610 ft | 462 kts | 261° |
| 2026-05-01 08:29 | 50.05843 | 11.62697 | 30919 ft | 464 kts | 254° |
| 2026-05-01 08:29 | 50.04691 | 11.58070 | 31219 ft | 465 kts | 248° |
| 2026-05-01 08:30 | 50.03205 | 11.53589 | 31494 ft | 467 kts | 242° |
| 2026-05-01 08:30 | 50.01415 | 11.49378 | 31804 ft | 467 kts | 235° |
| 2026-05-01 08:30 | 49.99351 | 11.45498 | 32119 ft | 467 kts | 229° |
| 2026-05-01 08:30 | 49.97050 | 11.41936 | 32355 ft | 468 kts | 224° |
| 2026-05-01 08:31 | 49.94609 | 11.38518 | 32382 ft | 471 kts | 222° |
| 2026-05-01 08:31 | 49.89671 | 11.31983 | 32378 ft | 466 kts | 220° |
| 2026-05-01 08:32 | 49.84632 | 11.25423 | 32375 ft | 467 kts | 220° |
| 2026-05-01 08:32 | 49.79645 | 11.18893 | 32377 ft | 468 kts | 220° |
| 2026-05-01 08:33 | 49.74713 | 11.12401 | 32375 ft | 467 kts | 221° |
| 2026-05-01 08:33 | 49.69783 | 11.05901 | 32370 ft | 468 kts | 221° |
| 2026-05-01 08:34 | 49.64837 | 10.99388 | 32375 ft | 468 kts | 221° |
| 2026-05-01 08:34 | 49.59898 | 10.92897 | 32377 ft | 467 kts | 221° |
| 2026-05-01 08:35 | 49.54978 | 10.86448 | 32373 ft | 468 kts | 221° |
| 2026-05-01 08:35 | 49.50048 | 10.79928 | 32372 ft | 466 kts | 223° |
| 2026-05-01 08:36 | 49.45419 | 10.72940 | 32367 ft | 467 kts | 227° |
| 2026-05-01 08:36 | 49.40934 | 10.65735 | 32370 ft | 466 kts | 227° |
| 2026-05-01 08:37 | 49.36512 | 10.58494 | 32374 ft | 465 kts | 228° |
| 2026-05-01 08:37 | 49.32074 | 10.51284 | 32376 ft | 465 kts | 227° |
| 2026-05-01 08:38 | 49.27552 | 10.44276 | 32370 ft | 465 kts | 226° |
| 2026-05-01 08:38 | 49.22949 | 10.37273 | 32359 ft | 465 kts | 226° |
| 2026-05-01 08:39 | 49.18421 | 10.30321 | 32348 ft | 465 kts | 226° |
| 2026-05-01 08:39 | 49.13834 | 10.23165 | 32351 ft | 464 kts | 228° |
| 2026-05-01 08:40 | 49.07659 | 10.11829 | 32364 ft | 463 kts | 233° |
| 2026-05-01 08:40 | 49.03717 | 10.04162 | 32353 ft | 463 kts | 233° |
| 2026-05-01 08:41 | 48.99742 | 9.96510 | 32357 ft | 462 kts | 232° |
| 2026-05-01 08:41 | 48.95694 | 9.88814 | 32356 ft | 463 kts | 232° |
| 2026-05-01 08:42 | 48.91651 | 9.81198 | 32344 ft | 463 kts | 232° |
| 2026-05-01 08:42 | 48.87601 | 9.73616 | 32339 ft | 463 kts | 232° |
| 2026-05-01 08:43 | 48.83537 | 9.66041 | 32333 ft | 462 kts | 232° |
| 2026-05-01 08:43 | 48.79493 | 9.58527 | 32318 ft | 462 kts | 232° |
| 2026-05-01 08:44 | 48.75446 | 9.51029 | 32313 ft | 462 kts | 232° |
| 2026-05-01 08:44 | 48.71359 | 9.43475 | 32317 ft | 463 kts | 232° |
| 2026-05-01 08:45 | 48.67293 | 9.35983 | 32324 ft | 462 kts | 232° |
| 2026-05-01 08:45 | 48.63211 | 9.28480 | 32326 ft | 463 kts | 231° |
| 2026-05-01 08:46 | 48.59227 | 9.20885 | 32322 ft | 462 kts | 234° |
| 2026-05-01 08:46 | 48.55512 | 9.12991 | 32318 ft | 462 kts | 236° |
| 2026-05-01 08:47 | 48.51844 | 9.05034 | 32313 ft | 461 kts | 236° |
| 2026-05-01 08:47 | 48.48187 | 8.97180 | 32310 ft | 460 kts | 236° |
| 2026-05-01 08:48 | 48.44492 | 8.89339 | 32302 ft | 460 kts | 236° |
| 2026-05-01 08:48 | 48.40793 | 8.81551 | 32299 ft | 460 kts | 235° |
| 2026-05-01 08:49 | 48.37064 | 8.73742 | 32300 ft | 461 kts | 235° |
| 2026-05-01 08:49 | 48.33320 | 8.65932 | 32301 ft | 461 kts | 235° |
| 2026-05-01 08:50 | 48.29572 | 8.58143 | 32294 ft | 458 kts | 235° |
| 2026-05-01 08:50 | 48.25838 | 8.50404 | 32291 ft | 460 kts | 235° |
| 2026-05-01 08:51 | 48.22100 | 8.42678 | 32296 ft | 460 kts | 235° |
| 2026-05-01 08:51 | 48.18215 | 8.34948 | 32295 ft | 460 kts | 230° |
| 2026-05-01 08:52 | 48.13426 | 8.28116 | 32553 ft | 465 kts | 217° |
| 2026-05-01 08:52 | 48.10791 | 8.25349 | 32870 ft | 464 kts | 213° |
| 2026-05-01 08:52 | 48.08081 | 8.22778 | 33193 ft | 462 kts | 211° |
| 2026-05-01 08:53 | 48.02594 | 8.17807 | 33289 ft | 465 kts | 211° |
| 2026-05-01 08:53 | 47.97071 | 8.12762 | 33292 ft | 462 kts | 211° |
| 2026-05-01 08:54 | 47.91644 | 8.07688 | 33291 ft | 463 kts | 212° |
| 2026-05-01 08:54 | 47.86157 | 8.02494 | 33285 ft | 463 kts | 212° |
| 2026-05-01 08:55 | 47.80755 | 7.97358 | 33277 ft | 461 kts | 212° |
| 2026-05-01 08:55 | 47.75382 | 7.92252 | 33270 ft | 462 kts | 212° |
| 2026-05-01 08:56 | 47.69964 | 7.87114 | 33272 ft | 461 kts | 212° |
| 2026-05-01 08:56 | 47.64593 | 7.82031 | 33276 ft | 461 kts | 212° |
| 2026-05-01 08:57 | 47.59201 | 7.76942 | 33275 ft | 461 kts | 212° |
| 2026-05-01 08:57 | 47.53816 | 7.71872 | 33275 ft | 460 kts | 212° |
| 2026-05-01 08:58 | 47.48405 | 7.66793 | 33276 ft | 461 kts | 212° |
| 2026-05-01 08:58 | 47.43036 | 7.61764 | 33274 ft | 458 kts | 212° |
| 2026-05-01 08:59 | 47.37643 | 7.56724 | 33274 ft | 459 kts | 212° |
| 2026-05-01 08:59 | 47.32278 | 7.51723 | 33272 ft | 460 kts | 212° |
| 2026-05-01 09:00 | 47.26913 | 7.46735 | 33269 ft | 458 kts | 212° |
| 2026-05-01 09:00 | 47.21514 | 7.41726 | 33269 ft | 458 kts | 212° |
| 2026-05-01 09:01 | 47.16416 | 7.36216 | 33269 ft | 458 kts | 222° |
| 2026-05-01 09:01 | 47.12079 | 7.29356 | 33273 ft | 459 kts | 230° |
| 2026-05-01 09:02 | 47.08114 | 7.22061 | 33276 ft | 458 kts | 231° |
| 2026-05-01 09:02 | 47.04214 | 7.14719 | 33282 ft | 458 kts | 231° |
| 2026-05-01 09:03 | 47.00308 | 7.07431 | 33292 ft | 455 kts | 231° |
| 2026-05-01 09:03 | 46.96366 | 7.00163 | 33296 ft | 456 kts | 231° |
| 2026-05-01 09:04 | 46.92412 | 6.92930 | 33299 ft | 456 kts | 231° |
| 2026-05-01 09:04 | 46.88437 | 6.85705 | 33297 ft | 454 kts | 230° |
| 2026-05-01 09:05 | 46.84480 | 6.78550 | 33296 ft | 455 kts | 230° |
| 2026-05-01 09:05 | 46.80521 | 6.71406 | 33290 ft | 454 kts | 230° |
| 2026-05-01 09:06 | 46.76553 | 6.64266 | 33291 ft | 453 kts | 230° |
| 2026-05-01 09:06 | 46.72597 | 6.57164 | 33284 ft | 453 kts | 230° |
| 2026-05-01 09:07 | 46.68652 | 6.50101 | 33276 ft | 452 kts | 230° |
| 2026-05-01 09:07 | 46.64692 | 6.43033 | 33269 ft | 452 kts | 230° |
| 2026-05-01 09:08 | 46.60721 | 6.35962 | 33263 ft | 452 kts | 229° |
| 2026-05-01 09:08 | 46.56754 | 6.28920 | 33276 ft | 450 kts | 229° |
| 2026-05-01 09:09 | 46.52790 | 6.21895 | 33259 ft | 449 kts | 229° |
| 2026-05-01 09:09 | 46.48866 | 6.14950 | 33256 ft | 446 kts | 229° |
| 2026-05-01 09:10 | 46.44936 | 6.08017 | 33258 ft | 446 kts | 229° |
| 2026-05-01 09:10 | 46.41023 | 6.01139 | 33265 ft | 446 kts | 228° |
| 2026-05-01 09:11 | 46.37082 | 5.94234 | 33259 ft | 445 kts | 228° |
| 2026-05-01 09:11 | 46.33157 | 5.87365 | 33258 ft | 444 kts | 228° |
| 2026-05-01 09:12 | 46.29238 | 5.80525 | 33257 ft | 443 kts | 228° |
| 2026-05-01 09:12 | 46.25319 | 5.73703 | 33253 ft | 442 kts | 228° |
| 2026-05-01 09:13 | 46.21389 | 5.66879 | 33249 ft | 442 kts | 228° |
| 2026-05-01 09:13 | 46.17481 | 5.60106 | 33253 ft | 441 kts | 228° |
| 2026-05-01 09:14 | 46.13615 | 5.53269 | 33247 ft | 441 kts | 231° |
| 2026-05-01 09:14 | 46.10062 | 5.46048 | 33251 ft | 442 kts | 234° |
| 2026-05-01 09:15 | 46.06652 | 5.38775 | 33243 ft | 440 kts | 234° |
| 2026-05-01 09:15 | 46.03197 | 5.31451 | 33245 ft | 440 kts | 233° |
| 2026-05-01 09:16 | 45.99744 | 5.24228 | 33241 ft | 438 kts | 233° |
| 2026-05-01 09:17 | 45.94574 | 5.13515 | 33242 ft | 436 kts | 233° |
| 2026-05-01 09:17 | 45.89359 | 5.02776 | 33245 ft | 434 kts | 233° |
| 2026-05-01 09:18 | 45.84190 | 4.92180 | 33242 ft | 434 kts | 233° |
| 2026-05-01 09:19 | 45.79020 | 4.81624 | 33244 ft | 432 kts | 233° |
| 2026-05-01 09:20 | 45.73872 | 4.71152 | 33244 ft | 428 kts | 234° |
| 2026-05-01 09:21 | 45.67024 | 4.57278 | 33232 ft | 426 kts | 234° |
| 2026-05-01 09:21 | 45.61895 | 4.46929 | 33239 ft | 426 kts | 234° |
| 2026-05-01 09:22 | 45.55056 | 4.33193 | 33248 ft | 425 kts | 234° |
| 2026-05-01 09:23 | 45.49920 | 4.22918 | 33248 ft | 423 kts | 234° |
| 2026-05-01 09:24 | 45.44804 | 4.12732 | 33255 ft | 423 kts | 234° |
| 2026-05-01 09:25 | 45.37978 | 3.99191 | 33250 ft | 423 kts | 234° |
| 2026-05-01 09:26 | 45.32821 | 3.89007 | 33260 ft | 424 kts | 235° |
| 2026-05-01 09:26 | 45.27666 | 3.78866 | 33264 ft | 423 kts | 235° |
| 2026-05-01 09:27 | 45.22572 | 3.68747 | 33271 ft | 422 kts | 236° |
| 2026-05-01 09:28 | 45.19228 | 3.61931 | 33273 ft | 422 kts | 236° |
| 2026-05-01 09:28 | 45.15879 | 3.55108 | 33272 ft | 423 kts | 236° |
| 2026-05-01 09:29 | 45.10834 | 3.44894 | 33273 ft | 423 kts | 236° |
| 2026-05-01 09:30 | 45.05781 | 3.34719 | 33276 ft | 424 kts | 236° |
| 2026-05-01 09:30 | 45.00682 | 3.24495 | 33267 ft | 423 kts | 236° |
| 2026-05-01 09:31 | 44.97277 | 3.17686 | 33260 ft | 424 kts | 236° |
| 2026-05-01 09:32 | 44.92192 | 3.07554 | 33247 ft | 424 kts | 236° |
| 2026-05-01 09:32 | 44.87078 | 2.97401 | 33253 ft | 424 kts | 236° |
| 2026-05-01 09:33 | 44.83688 | 2.90635 | 33255 ft | 424 kts | 237° |
| 2026-05-01 09:34 | 44.78880 | 2.80220 | 33247 ft | 425 kts | 238° |
| 2026-05-01 09:34 | 44.74112 | 2.69755 | 33249 ft | 425 kts | 238° |
| 2026-05-01 09:35 | 44.69291 | 2.59308 | 33244 ft | 426 kts | 238° |
| 2026-05-01 09:36 | 44.66067 | 2.52367 | 33241 ft | 425 kts | 238° |
| 2026-05-01 09:36 | 44.62839 | 2.45439 | 33239 ft | 426 kts | 238° |
| 2026-05-01 09:37 | 44.59616 | 2.38538 | 33236 ft | 426 kts | 238° |
| 2026-05-01 09:37 | 44.54717 | 2.28086 | 33232 ft | 427 kts | 237° |
| 2026-05-01 09:38 | 44.49827 | 2.17693 | 33234 ft | 428 kts | 237° |
| 2026-05-01 09:39 | 44.44917 | 2.07292 | 33224 ft | 427 kts | 237° |
| 2026-05-01 09:39 | 44.41642 | 2.00378 | 33221 ft | 428 kts | 237° |
| 2026-05-01 09:40 | 44.36713 | 1.89999 | 33212 ft | 429 kts | 237° |
| 2026-05-01 09:41 | 44.33409 | 1.83062 | 33215 ft | 429 kts | 237° |
| 2026-05-01 09:41 | 44.28446 | 1.72650 | 33206 ft | 430 kts | 237° |
| 2026-05-01 09:42 | 44.25222 | 1.65669 | 33209 ft | 429 kts | 238° |
| 2026-05-01 09:43 | 44.18830 | 1.51699 | 33196 ft | 431 kts | 238° |
| 2026-05-01 09:43 | 44.15604 | 1.44697 | 33198 ft | 430 kts | 238° |
| 2026-05-01 09:44 | 44.10723 | 1.34157 | 33186 ft | 433 kts | 237° |
| 2026-05-01 09:45 | 44.07452 | 1.27120 | 33187 ft | 432 kts | 237° |
| 2026-05-01 09:45 | 44.02568 | 1.16648 | 33183 ft | 433 kts | 237° |
| 2026-05-01 09:46 | 43.99298 | 1.09658 | 33183 ft | 432 kts | 237° |
| 2026-05-01 09:46 | 43.96044 | 1.02718 | 33178 ft | 432 kts | 237° |
| 2026-05-01 09:47 | 43.92751 | 0.95712 | 33185 ft | 433 kts | 237° |
| 2026-05-01 09:47 | 43.89457 | 0.88720 | 33182 ft | 433 kts | 237° |
| 2026-05-01 09:48 | 43.86251 | 0.81670 | 33183 ft | 433 kts | 238° |
| 2026-05-01 09:48 | 43.83210 | 0.74549 | 33182 ft | 432 kts | 239° |
| 2026-05-01 09:49 | 43.80164 | 0.67373 | 33178 ft | 431 kts | 239° |
| 2026-05-01 09:49 | 43.77116 | 0.60251 | 33183 ft | 432 kts | 239° |
| 2026-05-01 09:50 | 43.74061 | 0.53167 | 33178 ft | 432 kts | 239° |
| 2026-05-01 09:50 | 43.70980 | 0.46058 | 33175 ft | 431 kts | 239° |
| 2026-05-01 09:51 | 43.67886 | 0.38947 | 33182 ft | 432 kts | 239° |
| 2026-05-01 09:51 | 43.64781 | 0.31832 | 33179 ft | 432 kts | 238° |
| 2026-05-01 09:52 | 43.61689 | 0.24762 | 33177 ft | 431 kts | 238° |
| 2026-05-01 09:52 | 43.58611 | 0.17745 | 33176 ft | 430 kts | 238° |
| 2026-05-01 09:53 | 43.55521 | 0.10717 | 33177 ft | 431 kts | 238° |
| 2026-05-01 09:53 | 43.52422 | 0.03686 | 33179 ft | 430 kts | 238° |
| 2026-05-01 09:54 | 43.49310 | -0.03353 | 33175 ft | 430 kts | 238° |
| 2026-05-01 09:54 | 43.46201 | -0.10377 | 33179 ft | 430 kts | 238° |
| 2026-05-01 09:55 | 43.43092 | -0.17378 | 33182 ft | 429 kts | 238° |
| 2026-05-01 09:55 | 43.39996 | -0.24343 | 33180 ft | 428 kts | 238° |
| 2026-05-01 09:56 | 43.36890 | -0.31314 | 33177 ft | 428 kts | 238° |
| 2026-05-01 09:56 | 43.33789 | -0.38247 | 33175 ft | 428 kts | 238° |
| 2026-05-01 09:57 | 43.30666 | -0.45214 | 33175 ft | 429 kts | 238° |
| 2026-05-01 09:57 | 43.27546 | -0.52149 | 33178 ft | 429 kts | 238° |
| 2026-05-01 09:58 | 43.24419 | -0.59095 | 33178 ft | 428 kts | 238° |
| 2026-05-01 09:58 | 43.21291 | -0.66030 | 33195 ft | 428 kts | 237° |
| 2026-05-01 09:59 | 43.18163 | -0.72947 | 33197 ft | 428 kts | 238° |
| 2026-05-01 09:59 | 43.15039 | -0.79843 | 33208 ft | 428 kts | 237° |
| 2026-05-01 10:00 | 43.11897 | -0.86758 | 33208 ft | 427 kts | 237° |
| 2026-05-01 10:00 | 43.08772 | -0.93619 | 33208 ft | 426 kts | 237° |
| 2026-05-01 10:01 | 43.05644 | -1.00471 | 33216 ft | 425 kts | 238° |
| 2026-05-01 10:01 | 43.02508 | -1.07314 | 33215 ft | 426 kts | 237° |
| 2026-05-01 10:02 | 42.99358 | -1.14177 | 33211 ft | 427 kts | 237° |
| 2026-05-01 10:02 | 42.96231 | -1.20968 | 33201 ft | 426 kts | 238° |
| 2026-05-01 10:03 | 42.93071 | -1.27812 | 33202 ft | 427 kts | 238° |
| 2026-05-01 10:03 | 42.89904 | -1.34656 | 33206 ft | 427 kts | 238° |
| 2026-05-01 10:04 | 42.86744 | -1.41480 | 33200 ft | 427 kts | 238° |
| 2026-05-01 10:04 | 42.83583 | -1.48289 | 33201 ft | 426 kts | 238° |
| 2026-05-01 10:05 | 42.80412 | -1.55105 | 33200 ft | 427 kts | 238° |
| 2026-05-01 10:05 | 42.77229 | -1.61928 | 33196 ft | 427 kts | 238° |
| 2026-05-01 10:06 | 42.74193 | -1.68841 | 33192 ft | 427 kts | 243° |
| 2026-05-01 10:06 | 42.71937 | -1.76265 | 33189 ft | 428 kts | 250° |
| 2026-05-01 10:07 | 42.70146 | -1.83968 | 33189 ft | 428 kts | 252° |
| 2026-05-01 10:07 | 42.68449 | -1.91705 | 33185 ft | 427 kts | 253° |
| 2026-05-01 10:08 | 42.65883 | -2.03253 | 33178 ft | 428 kts | 253° |
| 2026-05-01 10:09 | 42.64144 | -2.10947 | 33178 ft | 428 kts | 252° |
| 2026-05-01 10:09 | 42.62385 | -2.18616 | 33186 ft | 428 kts | 252° |
| 2026-05-01 10:10 | 42.60538 | -2.26293 | 33196 ft | 427 kts | 251° |
| 2026-05-01 10:10 | 42.57750 | -2.37688 | 33174 ft | 427 kts | 251° |
| 2026-05-01 10:11 | 42.55878 | -2.45324 | 33161 ft | 427 kts | 252° |
| 2026-05-01 10:11 | 42.54005 | -2.52953 | 33168 ft | 428 kts | 252° |
| 2026-05-01 10:12 | 42.52446 | -2.59289 | 33168 ft | 427 kts | 252° |
| 2026-05-01 10:13 | 42.49300 | -2.72029 | 33170 ft | 427 kts | 251° |
| 2026-05-01 10:13 | 42.47424 | -2.79603 | 33171 ft | 427 kts | 251° |
| 2026-05-01 10:14 | 42.44478 | -2.90966 | 33179 ft | 427 kts | 248° |
| 2026-05-01 10:14 | 42.42047 | -2.98257 | 33183 ft | 426 kts | 245° |
| 2026-05-01 10:15 | 42.39502 | -3.05475 | 33187 ft | 427 kts | 245° |
| 2026-05-01 10:15 | 42.36973 | -3.12701 | 33190 ft | 426 kts | 245° |
| 2026-05-01 10:16 | 42.34464 | -3.19944 | 33199 ft | 427 kts | 245° |
| 2026-05-01 10:17 | 42.30723 | -3.30798 | 33197 ft | 426 kts | 246° |
| 2026-05-01 10:17 | 42.26967 | -3.41682 | 33184 ft | 427 kts | 246° |
| 2026-05-01 10:18 | 42.23201 | -3.52557 | 33182 ft | 427 kts | 246° |
| 2026-05-01 10:19 | 42.20710 | -3.59727 | 33174 ft | 427 kts | 246° |
| 2026-05-01 10:19 | 42.18186 | -3.66978 | 33165 ft | 427 kts | 245° |
| 2026-05-01 10:20 | 42.14391 | -3.77839 | 33163 ft | 426 kts | 245° |
| 2026-05-01 10:20 | 42.11879 | -3.85004 | 33165 ft | 427 kts | 245° |
| 2026-05-01 10:21 | 42.08064 | -3.95854 | 33163 ft | 428 kts | 246° |
| 2026-05-01 10:22 | 42.04250 | -4.06658 | 33173 ft | 428 kts | 246° |
| 2026-05-01 10:23 | 42.00360 | -4.17389 | 33166 ft | 427 kts | 244° |
| 2026-05-01 10:23 | 41.96291 | -4.28000 | 33163 ft | 426 kts | 244° |
| 2026-05-01 10:24 | 41.90881 | -4.42088 | 33159 ft | 426 kts | 244° |
| 2026-05-01 10:25 | 41.85451 | -4.56230 | 33154 ft | 425 kts | 244° |
| 2026-05-01 10:26 | 41.82749 | -4.63245 | 33149 ft | 424 kts | 244° |
| 2026-05-01 10:27 | 41.77334 | -4.77254 | 33156 ft | 424 kts | 243° |
| 2026-05-01 10:28 | 41.73270 | -4.87725 | 33153 ft | 423 kts | 243° |
| 2026-05-01 10:28 | 41.69212 | -4.98151 | 33154 ft | 422 kts | 243° |
| 2026-05-01 10:29 | 41.65167 | -5.08507 | 33147 ft | 420 kts | 243° |
| 2026-05-01 10:30 | 41.59753 | -5.22303 | 33142 ft | 419 kts | 242° |
| 2026-05-01 10:31 | 41.54321 | -5.36078 | 33134 ft | 419 kts | 242° |
| 2026-05-01 10:32 | 41.50254 | -5.46346 | 33139 ft | 419 kts | 242° |
| 2026-05-01 10:33 | 41.44811 | -5.60039 | 33142 ft | 418 kts | 242° |
| 2026-05-01 10:34 | 41.40729 | -5.70264 | 33146 ft | 418 kts | 241° |
| 2026-05-01 10:34 | 41.38000 | -5.77077 | 33150 ft | 417 kts | 241° |
| 2026-05-01 10:35 | 41.33913 | -5.87258 | 33149 ft | 416 kts | 241° |
| 2026-05-01 10:35 | 41.31205 | -5.93981 | 33150 ft | 416 kts | 241° |
| 2026-05-01 10:36 | 41.27099 | -6.04144 | 33151 ft | 415 kts | 241° |
| 2026-05-01 10:37 | 41.24387 | -6.10838 | 33150 ft | 414 kts | 241° |
| 2026-05-01 10:37 | 41.20284 | -6.20946 | 33146 ft | 417 kts | 242° |
| 2026-05-01 10:38 | 41.17436 | -6.27614 | 33146 ft | 418 kts | 237° |
| 2026-05-01 10:38 | 41.13891 | -6.33740 | 33149 ft | 416 kts | 230° |
| 2026-05-01 10:39 | 41.10080 | -6.39427 | 33149 ft | 413 kts | 229° |
| 2026-05-01 10:39 | 41.06253 | -6.45093 | 33149 ft | 413 kts | 229° |
| 2026-05-01 10:40 | 41.02466 | -6.50751 | 33145 ft | 413 kts | 229° |
| 2026-05-01 10:40 | 40.98674 | -6.56446 | 33146 ft | 414 kts | 229° |
| 2026-05-01 10:41 | 40.94863 | -6.62179 | 33142 ft | 412 kts | 229° |
| 2026-05-01 10:42 | 40.89139 | -6.70772 | 33138 ft | 413 kts | 229° |
| 2026-05-01 10:42 | 40.85360 | -6.76432 | 33138 ft | 412 kts | 229° |
| 2026-05-01 10:43 | 40.81578 | -6.82090 | 33136 ft | 411 kts | 229° |
| 2026-05-01 10:43 | 40.77802 | -6.87725 | 33134 ft | 411 kts | 229° |
| 2026-05-01 10:44 | 40.74045 | -6.93322 | 33136 ft | 410 kts | 229° |
| 2026-05-01 10:44 | 40.70255 | -6.98962 | 33135 ft | 411 kts | 229° |
| 2026-05-01 10:45 | 40.66483 | -7.04563 | 33134 ft | 409 kts | 229° |
| 2026-05-01 10:45 | 40.62723 | -7.10137 | 33135 ft | 410 kts | 229° |
| 2026-05-01 10:46 | 40.58938 | -7.15732 | 33135 ft | 409 kts | 229° |
| 2026-05-01 10:46 | 40.55168 | -7.21293 | 33136 ft | 409 kts | 229° |
| 2026-05-01 10:47 | 40.51390 | -7.26854 | 33137 ft | 408 kts | 230° |
| 2026-05-01 10:47 | 40.47625 | -7.32393 | 33138 ft | 407 kts | 230° |
| 2026-05-01 10:48 | 40.43864 | -7.37915 | 33138 ft | 407 kts | 230° |
| 2026-05-01 10:48 | 40.40095 | -7.43438 | 33138 ft | 407 kts | 230° |
| 2026-05-01 10:49 | 40.36340 | -7.48934 | 33138 ft | 406 kts | 230° |
| 2026-05-01 10:49 | 40.32575 | -7.54432 | 33138 ft | 404 kts | 230° |
| 2026-05-01 10:50 | 40.28830 | -7.59888 | 33138 ft | 405 kts | 230° |
| 2026-05-01 10:50 | 40.25066 | -7.65367 | 33140 ft | 404 kts | 229° |
| 2026-05-01 10:51 | 40.21307 | -7.70830 | 33141 ft | 404 kts | 229° |
| 2026-05-01 10:51 | 40.17561 | -7.76261 | 33142 ft | 403 kts | 229° |
| 2026-05-01 10:52 | 40.13842 | -7.81644 | 33143 ft | 401 kts | 230° |
| 2026-05-01 10:52 | 40.10103 | -7.87040 | 33142 ft | 402 kts | 230° |
| 2026-05-01 10:53 | 40.06364 | -7.92432 | 33142 ft | 400 kts | 230° |
| 2026-05-01 10:53 | 40.02636 | -7.97799 | 33142 ft | 400 kts | 230° |
| 2026-05-01 10:54 | 39.98910 | -8.03156 | 33142 ft | 400 kts | 230° |
| 2026-05-01 10:54 | 39.95170 | -8.08520 | 33142 ft | 400 kts | 230° |
| 2026-05-01 10:55 | 39.91427 | -8.13884 | 33139 ft | 400 kts | 230° |
| 2026-05-01 10:55 | 39.87671 | -8.19250 | 33138 ft | 398 kts | 230° |
| 2026-05-01 10:56 | 39.83978 | -8.24516 | 33137 ft | 396 kts | 230° |
| 2026-05-01 10:56 | 39.80275 | -8.29792 | 33136 ft | 395 kts | 230° |
| 2026-05-01 10:57 | 39.76576 | -8.35052 | 33132 ft | 395 kts | 230° |
| 2026-05-01 10:57 | 39.72861 | -8.40325 | 33133 ft | 394 kts | 230° |
| 2026-05-01 10:58 | 39.69171 | -8.45550 | 33133 ft | 394 kts | 231° |
| 2026-05-01 10:58 | 39.65495 | -8.50769 | 33133 ft | 393 kts | 231° |
| 2026-05-01 10:59 | 39.61901 | -8.56090 | 33134 ft | 392 kts | 232° |
| 2026-05-01 10:59 | 39.58354 | -8.61420 | 33136 ft | 390 kts | 232° |
| 2026-05-01 11:00 | 39.54807 | -8.66716 | 33137 ft | 390 kts | 231° |
| 2026-05-01 11:00 | 39.51266 | -8.71977 | 33138 ft | 390 kts | 231° |
| 2026-05-01 11:01 | 39.47710 | -8.77238 | 33138 ft | 389 kts | 232° |
| 2026-05-01 11:01 | 39.44153 | -8.82489 | 33139 ft | 388 kts | 231° |
| 2026-05-01 11:02 | 39.40590 | -8.87741 | 33137 ft | 387 kts | 232° |
| 2026-05-01 11:02 | 39.37071 | -8.92924 | 33135 ft | 385 kts | 232° |
| 2026-05-01 11:03 | 39.33530 | -8.98137 | 33136 ft | 386 kts | 232° |
| 2026-05-01 11:03 | 39.30009 | -9.03302 | 33136 ft | 385 kts | 232° |
| 2026-05-01 11:04 | 39.26494 | -9.08449 | 33137 ft | 384 kts | 232° |
| 2026-05-01 11:04 | 39.22948 | -9.13630 | 33137 ft | 385 kts | 232° |
| 2026-05-01 11:05 | 39.19412 | -9.18788 | 33138 ft | 383 kts | 232° |
| 2026-05-01 11:05 | 39.15897 | -9.23911 | 33140 ft | 382 kts | 232° |
| 2026-05-01 11:06 | 39.12383 | -9.29016 | 33143 ft | 382 kts | 232° |
| 2026-05-01 11:06 | 39.08854 | -9.34098 | 33144 ft | 380 kts | 232° |
| 2026-05-01 11:07 | 39.03563 | -9.41692 | 33143 ft | 380 kts | 232° |
| 2026-05-01 11:07 | 39.00046 | -9.46734 | 33140 ft | 379 kts | 232° |
| 2026-05-01 11:08 | 38.96539 | -9.51753 | 33146 ft | 379 kts | 232° |
| 2026-05-01 11:09 | 38.91265 | -9.59283 | 33147 ft | 377 kts | 232° |
| 2026-05-01 11:09 | 38.87749 | -9.64294 | 33147 ft | 377 kts | 233° |
| 2026-05-01 11:10 | 38.82479 | -9.71792 | 33149 ft | 376 kts | 232° |
| 2026-05-01 11:10 | 38.78979 | -9.76767 | 33146 ft | 376 kts | 232° |
| 2026-05-01 11:11 | 38.75485 | -9.81723 | 33148 ft | 377 kts | 232° |
| 2026-05-01 11:11 | 38.71975 | -9.86688 | 33151 ft | 376 kts | 232° |
| 2026-05-01 11:12 | 38.68470 | -9.91638 | 33152 ft | 375 kts | 232° |
| 2026-05-01 11:12 | 38.64973 | -9.96571 | 33151 ft | 376 kts | 232° |
| 2026-05-01 11:13 | 38.61479 | -10.01493 | 33153 ft | 375 kts | 232° |
| 2026-05-01 11:13 | 38.57987 | -10.06410 | 33152 ft | 375 kts | 232° |
| 2026-05-01 11:14 | 38.54488 | -10.11319 | 33154 ft | 374 kts | 232° |
| 2026-05-01 11:14 | 38.50995 | -10.16213 | 33150 ft | 373 kts | 232° |
| 2026-05-01 11:15 | 38.47489 | -10.21124 | 33152 ft | 373 kts | 232° |
| 2026-05-01 11:15 | 38.44012 | -10.25986 | 33152 ft | 372 kts | 232° |
| 2026-05-01 11:16 | 38.40535 | -10.30842 | 33153 ft | 372 kts | 232° |
| 2026-05-01 11:16 | 38.37052 | -10.35695 | 33153 ft | 372 kts | 232° |
| 2026-05-01 11:17 | 38.33571 | -10.40540 | 33154 ft | 371 kts | 232° |
| 2026-05-01 11:17 | 38.30096 | -10.45363 | 33152 ft | 371 kts | 232° |
| 2026-05-01 11:18 | 38.26614 | -10.50196 | 33150 ft | 370 kts | 232° |
| 2026-05-01 11:18 | 38.23144 | -10.54996 | 33149 ft | 370 kts | 232° |
| 2026-05-01 11:19 | 38.19646 | -10.59843 | 33150 ft | 370 kts | 232° |
| 2026-05-01 11:19 | 38.16184 | -10.64625 | 33153 ft | 370 kts | 232° |
| 2026-05-01 11:20 | 38.12664 | -10.69432 | 33148 ft | 371 kts | 231° |
| 2026-05-01 11:20 | 38.09076 | -10.74128 | 33152 ft | 371 kts | 230° |
| 2026-05-01 11:21 | 38.05482 | -10.78791 | 33154 ft | 371 kts | 230° |
| 2026-05-01 11:21 | 38.01891 | -10.83467 | 33152 ft | 369 kts | 230° |
| 2026-05-01 11:22 | 37.98308 | -10.88138 | 33152 ft | 371 kts | 230° |
| 2026-05-01 11:22 | 37.94745 | -10.92788 | 33151 ft | 369 kts | 230° |
| 2026-05-01 11:23 | 37.91175 | -10.97448 | 33151 ft | 370 kts | 230° |
| 2026-05-01 11:23 | 37.87577 | -11.02121 | 33153 ft | 371 kts | 230° |
| 2026-05-01 11:24 | 37.83975 | -11.06795 | 33152 ft | 371 kts | 230° |
| 2026-05-01 11:25 | 37.78573 | -11.13786 | 33152 ft | 371 kts | 230° |
| 2026-05-01 11:25 | 37.73189 | -11.20746 | 33149 ft | 372 kts | 230° |
| 2026-05-01 11:26 | 37.67762 | -11.27747 | 33148 ft | 373 kts | 230° |
| 2026-05-01 11:27 | 37.64149 | -11.32399 | 33147 ft | 370 kts | 230° |
| 2026-05-01 11:27 | 37.60540 | -11.37042 | 33146 ft | 373 kts | 230° |
| 2026-05-01 11:28 | 37.56920 | -11.41691 | 33147 ft | 371 kts | 230° |
| 2026-05-01 11:28 | 37.53298 | -11.46330 | 33146 ft | 372 kts | 230° |
| 2026-05-01 11:29 | 37.47860 | -11.53288 | 33145 ft | 373 kts | 230° |
| 2026-05-01 11:30 | 37.42401 | -11.60255 | 33147 ft | 374 kts | 230° |
| 2026-05-01 11:30 | 37.38771 | -11.64875 | 33147 ft | 372 kts | 230° |
| 2026-05-01 11:31 | 37.35115 | -11.69526 | 33145 ft | 375 kts | 229° |
| 2026-05-01 11:31 | 37.31479 | -11.74146 | 33146 ft | 374 kts | 229° |
| 2026-05-01 11:32 | 37.27801 | -11.78815 | 33148 ft | 374 kts | 229° |
| 2026-05-01 11:32 | 37.24150 | -11.83436 | 33143 ft | 374 kts | 229° |
| 2026-05-01 11:33 | 37.20484 | -11.88081 | 33149 ft | 375 kts | 229° |
| 2026-05-01 11:33 | 37.16811 | -11.92722 | 33145 ft | 374 kts | 229° |
| 2026-05-01 11:34 | 37.13142 | -11.97345 | 33148 ft | 376 kts | 229° |
| 2026-05-01 11:34 | 37.09470 | -12.01974 | 33152 ft | 377 kts | 229° |
| 2026-05-01 11:35 | 37.05773 | -12.06618 | 33149 ft | 376 kts | 229° |
| 2026-05-01 11:35 | 37.02089 | -12.11239 | 33144 ft | 375 kts | 229° |
| 2026-05-01 11:36 | 36.98402 | -12.15860 | 33148 ft | 377 kts | 229° |
| 2026-05-01 11:36 | 36.94716 | -12.20477 | 33142 ft | 377 kts | 229° |
| 2026-05-01 11:37 | 36.90998 | -12.25127 | 33135 ft | 376 kts | 229° |
| 2026-05-01 11:37 | 36.87293 | -12.29749 | 33127 ft | 377 kts | 229° |
| 2026-05-01 11:38 | 36.83605 | -12.34344 | 33129 ft | 374 kts | 229° |
| 2026-05-01 11:38 | 36.79891 | -12.38964 | 33128 ft | 377 kts | 229° |
| 2026-05-01 11:39 | 36.76149 | -12.43614 | 33124 ft | 375 kts | 229° |
| 2026-05-01 11:39 | 36.72431 | -12.48228 | 33128 ft | 376 kts | 229° |
| 2026-05-01 11:40 | 36.68717 | -12.52829 | 33123 ft | 376 kts | 229° |
| 2026-05-01 11:40 | 36.64989 | -12.57441 | 33126 ft | 376 kts | 229° |
| 2026-05-01 11:41 | 36.61273 | -12.62030 | 33122 ft | 376 kts | 229° |
| 2026-05-01 11:41 | 36.57547 | -12.66636 | 33134 ft | 378 kts | 229° |
| 2026-05-01 11:42 | 36.53743 | -12.71333 | 33329 ft | 388 kts | 229° |
| 2026-05-01 11:42 | 36.51803 | -12.73721 | 33563 ft | 390 kts | 228° |
| 2026-05-01 11:42 | 36.49868 | -12.76098 | 33907 ft | 389 kts | 228° |
| 2026-05-01 11:42 | 36.47965 | -12.78432 | 34317 ft | 387 kts | 229° |
| 2026-05-01 11:43 | 36.46037 | -12.80796 | 34772 ft | 384 kts | 229° |
| 2026-05-01 11:43 | 36.44148 | -12.83112 | 35115 ft | 383 kts | 228° |
| 2026-05-01 11:43 | 36.42246 | -12.85443 | 35125 ft | 385 kts | 228° |
| 2026-05-01 11:44 | 36.36540 | -12.92434 | 35125 ft | 392 kts | 229° |
| 2026-05-01 11:44 | 36.32610 | -12.97245 | 35126 ft | 401 kts | 228° |
| 2026-05-01 11:45 | 36.28442 | -13.01919 | 35126 ft | 407 kts | 225° |
| 2026-05-01 11:45 | 36.24126 | -13.06394 | 35125 ft | 405 kts | 224° |
| 2026-05-01 11:46 | 36.19802 | -13.10878 | 35124 ft | 406 kts | 225° |
| 2026-05-01 11:46 | 36.15509 | -13.15371 | 35126 ft | 405 kts | 225° |
| 2026-05-01 11:47 | 36.11026 | -13.20079 | 35126 ft | 404 kts | 225° |
| 2026-05-01 11:47 | 36.06541 | -13.24802 | 35123 ft | 404 kts | 225° |
| 2026-05-01 11:48 | 36.02056 | -13.29523 | 35124 ft | 404 kts | 225° |
| 2026-05-01 11:48 | 35.97543 | -13.34266 | 35125 ft | 403 kts | 225° |
| 2026-05-01 11:49 | 35.93060 | -13.38965 | 35126 ft | 405 kts | 225° |
| 2026-05-01 11:49 | 35.88544 | -13.43691 | 35122 ft | 405 kts | 225° |
| 2026-05-01 11:50 | 35.84071 | -13.48366 | 35124 ft | 405 kts | 225° |
| 2026-05-01 11:50 | 35.79541 | -13.53095 | 35121 ft | 406 kts | 225° |
| 2026-05-01 11:51 | 35.75011 | -13.57816 | 35117 ft | 405 kts | 225° |
| 2026-05-01 11:51 | 35.70495 | -13.62512 | 35120 ft | 402 kts | 225° |
| 2026-05-01 11:52 | 35.65966 | -13.67219 | 35116 ft | 406 kts | 224° |
| 2026-05-01 11:52 | 35.61472 | -13.71887 | 35117 ft | 406 kts | 225° |
| 2026-05-01 11:53 | 35.56917 | -13.76600 | 35118 ft | 406 kts | 225° |
| 2026-05-01 11:53 | 35.52383 | -13.81286 | 35113 ft | 406 kts | 224° |
| 2026-05-01 11:54 | 35.47844 | -13.85972 | 35122 ft | 406 kts | 225° |
| 2026-05-01 11:54 | 35.43352 | -13.90601 | 35125 ft | 405 kts | 225° |
| 2026-05-01 11:55 | 35.38829 | -13.95261 | 35129 ft | 405 kts | 224° |
| 2026-05-01 11:55 | 35.34340 | -13.99873 | 35131 ft | 404 kts | 224° |
| 2026-05-01 11:56 | 35.29832 | -14.04499 | 35132 ft | 406 kts | 224° |
| 2026-05-01 11:56 | 35.25324 | -14.09120 | 35131 ft | 406 kts | 225° |
| 2026-05-01 11:57 | 35.21513 | -14.13020 | 35127 ft | 406 kts | 224° |
| 2026-05-01 11:57 | 35.16221 | -14.18421 | 35127 ft | 406 kts | 224° |
| 2026-05-01 11:58 | 35.11738 | -14.22993 | 35129 ft | 405 kts | 224° |
| 2026-05-01 11:59 | 35.04870 | -14.29989 | 35130 ft | 406 kts | 224° |
| 2026-05-01 11:59 | 35.00335 | -14.34598 | 35133 ft | 406 kts | 224° |
| 2026-05-01 12:00 | 34.93535 | -14.41498 | 35130 ft | 408 kts | 224° |
| 2026-05-01 12:01 | 34.86892 | -14.48220 | 35127 ft | 406 kts | 224° |
| 2026-05-01 12:01 | 34.82547 | -14.52607 | 35127 ft | 406 kts | 225° |
| 2026-05-01 12:02 | 34.78182 | -14.57013 | 35125 ft | 406 kts | 225° |
| 2026-05-01 12:02 | 34.73849 | -14.61375 | 35123 ft | 405 kts | 225° |
| 2026-05-01 12:03 | 34.69469 | -14.65781 | 35128 ft | 404 kts | 224° |
| 2026-05-01 12:03 | 34.65133 | -14.70139 | 35132 ft | 407 kts | 224° |
| 2026-05-01 12:04 | 34.60771 | -14.74517 | 35134 ft | 406 kts | 224° |
| 2026-05-01 12:04 | 34.56413 | -14.78880 | 35133 ft | 405 kts | 224° |
| 2026-05-01 12:05 | 34.52066 | -14.83230 | 35133 ft | 404 kts | 224° |
| 2026-05-01 12:05 | 34.45561 | -14.89729 | 35134 ft | 407 kts | 224° |
| 2026-05-01 12:06 | 34.41186 | -14.94091 | 35131 ft | 405 kts | 224° |
| 2026-05-01 12:06 | 34.36842 | -14.98414 | 35131 ft | 405 kts | 224° |
| 2026-05-01 12:07 | 34.32443 | -15.02782 | 35125 ft | 398 kts | 224° |
| 2026-05-01 12:07 | 34.30360 | -15.04839 | 35128 ft | 383 kts | 224° |
| 2026-05-01 12:07 | 34.28325 | -15.06846 | 35114 ft | 368 kts | 224° |
| 2026-05-01 12:08 | 34.26361 | -15.08785 | 34898 ft | 358 kts | 225° |
| 2026-05-01 12:08 | 34.24465 | -15.10664 | 34649 ft | 348 kts | 225° |
| 2026-05-01 12:08 | 34.22594 | -15.12521 | 34295 ft | 347 kts | 225° |
| 2026-05-01 12:08 | 34.20698 | -15.14413 | 33900 ft | 357 kts | 225° |
| 2026-05-01 12:09 | 34.18765 | -15.16340 | 33497 ft | 360 kts | 224° |
| 2026-05-01 12:09 | 34.16843 | -15.18243 | 33087 ft | 355 kts | 224° |
| 2026-05-01 12:09 | 34.14944 | -15.20118 | 32688 ft | 350 kts | 224° |
| 2026-05-01 12:09 | 34.13077 | -15.21956 | 32295 ft | 345 kts | 224° |
| 2026-05-01 12:10 | 34.11251 | -15.23756 | 31908 ft | 340 kts | 224° |
| 2026-05-01 12:10 | 34.07597 | -15.27360 | 31134 ft | 336 kts | 225° |
| 2026-05-01 12:10 | 34.05780 | -15.29159 | 30743 ft | 344 kts | 224° |
| 2026-05-01 12:11 | 34.02108 | -15.32780 | 29956 ft | 339 kts | 224° |
| 2026-05-01 12:11 | 34.00290 | -15.34565 | 29567 ft | 334 kts | 224° |
| 2026-05-01 12:11 | 33.98513 | -15.36309 | 29189 ft | 328 kts | 224° |
| 2026-05-01 12:12 | 33.96760 | -15.38028 | 28816 ft | 321 kts | 224° |
| 2026-05-01 12:12 | 33.95014 | -15.39763 | 28440 ft | 329 kts | 225° |
| 2026-05-01 12:12 | 33.93265 | -15.41501 | 28052 ft | 325 kts | 224° |
| 2026-05-01 12:12 | 33.91523 | -15.43200 | 27676 ft | 321 kts | 224° |
| 2026-05-01 12:13 | 33.89788 | -15.44886 | 27302 ft | 316 kts | 224° |
| 2026-05-01 12:13 | 33.88062 | -15.46569 | 26931 ft | 316 kts | 224° |
| 2026-05-01 12:13 | 33.86324 | -15.48274 | 26553 ft | 323 kts | 224° |
| 2026-05-01 12:13 | 33.84579 | -15.49984 | 26170 ft | 322 kts | 224° |
| 2026-05-01 12:14 | 33.82875 | -15.51648 | 25799 ft | 318 kts | 224° |
| 2026-05-01 12:14 | 33.81153 | -15.53327 | 25424 ft | 314 kts | 224° |
| 2026-05-01 12:14 | 33.79476 | -15.54964 | 25059 ft | 309 kts | 224° |
| 2026-05-01 12:14 | 33.77792 | -15.56607 | 24692 ft | 305 kts | 224° |
| 2026-05-01 12:15 | 33.76124 | -15.58237 | 24331 ft | 308 kts | 224° |
| 2026-05-01 12:15 | 33.74450 | -15.59876 | 23963 ft | 312 kts | 224° |
| 2026-05-01 12:15 | 33.72776 | -15.61510 | 23596 ft | 308 kts | 224° |
| 2026-05-01 12:15 | 33.71144 | -15.63098 | 23238 ft | 304 kts | 224° |
| 2026-05-01 12:16 | 33.69498 | -15.64700 | 22877 ft | 300 kts | 224° |
| 2026-05-01 12:16 | 33.67889 | -15.66266 | 22527 ft | 297 kts | 223° |
| 2026-05-01 12:16 | 33.66297 | -15.67816 | 22176 ft | 294 kts | 223° |
| 2026-05-01 12:16 | 33.64696 | -15.69375 | 21825 ft | 295 kts | 223° |
| 2026-05-01 12:17 | 33.63097 | -15.70934 | 21469 ft | 300 kts | 223° |
| 2026-05-01 12:17 | 33.61475 | -15.72511 | 21114 ft | 298 kts | 223° |
| 2026-05-01 12:17 | 33.59865 | -15.74074 | 20760 ft | 295 kts | 223° |
| 2026-05-01 12:17 | 33.58273 | -15.75618 | 20408 ft | 292 kts | 222° |
| 2026-05-01 12:18 | 33.56708 | -15.77135 | 20064 ft | 289 kts | 223° |
| 2026-05-01 12:18 | 33.55151 | -15.78686 | 19716 ft | 285 kts | 225° |
| 2026-05-01 12:18 | 33.53728 | -15.80286 | 19383 ft | 284 kts | 227° |
| 2026-05-01 12:18 | 33.52321 | -15.81974 | 19039 ft | 290 kts | 227° |
| 2026-05-01 12:19 | 33.50893 | -15.83702 | 18688 ft | 290 kts | 227° |
| 2026-05-01 12:19 | 33.49455 | -15.85425 | 18335 ft | 287 kts | 227° |
| 2026-05-01 12:19 | 33.48044 | -15.87094 | 17990 ft | 284 kts | 227° |
| 2026-05-01 12:19 | 33.46639 | -15.88746 | 17650 ft | 281 kts | 227° |
| 2026-05-01 12:20 | 33.45246 | -15.90378 | 17314 ft | 279 kts | 227° |
| 2026-05-01 12:20 | 33.43879 | -15.91977 | 16981 ft | 276 kts | 227° |
| 2026-05-01 12:20 | 33.42506 | -15.93582 | 16646 ft | 275 kts | 227° |
| 2026-05-01 12:20 | 33.41119 | -15.95205 | 16310 ft | 281 kts | 227° |
| 2026-05-01 12:21 | 33.39717 | -15.96846 | 15965 ft | 282 kts | 227° |
| 2026-05-01 12:21 | 33.38307 | -15.98492 | 15619 ft | 280 kts | 227° |
| 2026-05-01 12:21 | 33.36927 | -16.00101 | 15284 ft | 277 kts | 227° |
| 2026-05-01 12:21 | 33.35541 | -16.01716 | 14946 ft | 275 kts | 227° |
| 2026-05-01 12:22 | 33.34188 | -16.03295 | 14615 ft | 272 kts | 227° |
| 2026-05-01 12:22 | 33.32824 | -16.04886 | 14298 ft | 271 kts | 227° |
| 2026-05-01 12:22 | 33.31468 | -16.06470 | 14058 ft | 275 kts | 227° |
| 2026-05-01 12:22 | 33.30089 | -16.08077 | 13814 ft | 278 kts | 227° |
| 2026-05-01 12:23 | 33.28699 | -16.09693 | 13563 ft | 276 kts | 226° |
| 2026-05-01 12:23 | 33.27327 | -16.11287 | 13311 ft | 273 kts | 227° |
| 2026-05-01 12:23 | 33.25967 | -16.12869 | 13074 ft | 274 kts | 226° |
| 2026-05-01 12:23 | 33.24604 | -16.14455 | 12836 ft | 274 kts | 227° |
| 2026-05-01 12:24 | 33.23238 | -16.16043 | 12612 ft | 270 kts | 226° |
| 2026-05-01 12:24 | 33.21911 | -16.17583 | 12350 ft | 266 kts | 226° |
| 2026-05-01 12:24 | 33.20565 | -16.19147 | 12021 ft | 270 kts | 226° |
| 2026-05-01 12:24 | 33.19229 | -16.20700 | 11675 ft | 272 kts | 226° |
| 2026-05-01 12:25 | 33.17841 | -16.22310 | 11359 ft | 270 kts | 226° |
| 2026-05-01 12:25 | 33.15162 | -16.25412 | 10656 ft | 266 kts | 226° |
| 2026-05-01 12:25 | 33.13840 | -16.26944 | 10349 ft | 263 kts | 226° |
| 2026-05-01 12:26 | 33.12506 | -16.28490 | 10026 ft | 261 kts | 226° |
| 2026-05-01 12:26 | 33.09899 | -16.31509 | 9379 ft | 263 kts | 226° |
| 2026-05-01 12:26 | 33.08584 | -16.33032 | 9047 ft | 266 kts | 225° |
| 2026-05-01 12:27 | 33.07263 | -16.34558 | 8714 ft | 264 kts | 225° |
| 2026-05-01 12:27 | 33.04636 | -16.37591 | 8055 ft | 261 kts | 225° |
| 2026-05-01 12:28 | 33.02026 | -16.40604 | 7392 ft | 259 kts | 225° |
| 2026-05-01 12:28 | 33.00753 | -16.42074 | 7078 ft | 258 kts | 225° |
| 2026-05-01 12:28 | 32.98157 | -16.45063 | 6395 ft | 257 kts | 224° |
| 2026-05-01 12:29 | 32.96860 | -16.46555 | 5948 ft | 260 kts | 224° |
| 2026-05-01 12:29 | 32.95549 | -16.48060 | 5601 ft | 259 kts | 224° |
| 2026-05-01 12:29 | 32.92981 | -16.51020 | 5027 ft | 253 kts | 224° |
| 2026-05-01 12:30 | 32.90396 | -16.53820 | 4599 ft | 243 kts | 222° |
| 2026-05-01 12:30 | 32.89126 | -16.55155 | 4353 ft | 239 kts | 222° |
| 2026-05-01 12:30 | 32.87899 | -16.56463 | 4073 ft | 238 kts | 223° |
| 2026-05-01 12:31 | 32.86660 | -16.57787 | 3824 ft | 235 kts | 223° |
| 2026-05-01 12:31 | 32.85448 | -16.59080 | 3576 ft | 233 kts | 223° |
| 2026-05-01 12:31 | 32.84251 | -16.60358 | 3367 ft | 229 kts | 223° |
| 2026-05-01 12:31 | 32.83071 | -16.61618 | 3142 ft | 226 kts | 223° |
| 2026-05-01 12:32 | 32.81912 | -16.62853 | 2945 ft | 221 kts | 223° |
| 2026-05-01 12:32 | 32.79639 | -16.65278 | 2477 ft | 218 kts | 223° |
| 2026-05-01 12:32 | 32.78548 | -16.66446 | 2181 ft | 208 kts | 223° |
| 2026-05-01 12:33 | 32.77493 | -16.67576 | 1920 ft | 195 kts | 223° |
| 2026-05-01 12:33 | 32.76519 | -16.68614 | 1685 ft | 184 kts | 223° |
| 2026-05-01 12:33 | 32.75650 | -16.69652 | 1500 ft | 169 kts | 231° |
| 2026-05-01 12:33 | 32.74985 | -16.70775 | 1265 ft | 159 kts | 238° |
| 2026-05-01 12:34 | 32.74432 | -16.71895 | 969 ft | 156 kts | 240° |
| 2026-05-01 12:34 | 32.73834 | -16.72944 | 740 ft | 147 kts | 224° |
| 2026-05-01 12:34 | 32.73151 | -16.73729 | 677 ft | 123 kts | 221° |
| 2026-05-01 12:34 | 32.72517 | -16.74427 | 482 ft | 140 kts | 221° |
| 2026-05-01 12:35 | 32.71838 | -16.75127 | 580 ft | 126 kts | 218° |
| 2026-05-01 12:35 | 32.71172 | -16.75820 | 402 ft | 129 kts | 222° |
| 2026-05-01 12:35 | 32.70525 | -16.76581 | 243 ft | 131 kts | 222° |
| 2026-05-01 12:35 | 32.69962 | -16.77231 | 204 ft | 75 kts | 225° |
| 2026-05-01 12:36 | 32.69694 | -16.77552 | 198 ft | 52 kts | 223° |
| 2026-05-01 12:36 | 32.69443 | -16.77846 | 182 ft | 37 kts | 225° |
| 2026-05-01 12:36 | 32.69307 | -16.77949 | 175 ft | 17 kts | 143° |
| 2026-05-01 12:36 | 32.69288 | -16.77892 | 181 ft | 7 kts | 90° |
| 2026-05-01 12:37 | 32.69321 | -16.77814 | 184 ft | 11 kts | 45° |
| 2026-05-01 12:37 | 32.69377 | -16.77746 | 184 ft | 13 kts | 46° |
| 2026-05-01 12:37 | 32.69463 | -16.77639 | 184 ft | 17 kts | 45° |
| 2026-05-01 12:37 | 32.69508 | -16.77576 | 184 ft | 4 kts | 101° |
| 2026-05-01 12:38 | 32.69492 | -16.77547 | 184 ft | 4 kts | 133° |
| 2026-05-01 12:38 | 32.69471 | -16.77523 | 184 ft | 1 kts | 137° |
| 2026-05-01 12:38 | 32.69468 | -16.77520 | 184 ft | 0 kts | 138° |